createdAt,value
2018-04-25T00:01:45.605Z,14.40
2018-04-25T00:04:13.758Z,14.30
2018-04-25T00:06:41.220Z,14.20
2018-04-25T00:09:08.657Z,14.20
2018-04-25T00:11:36.118Z,14.10
2018-04-25T00:14:03.581Z,14.10
2018-04-25T00:16:31.018Z,14.20
2018-04-25T00:18:58.465Z,14.10
2018-04-25T00:21:26.681Z,14.00
2018-04-25T00:23:54.137Z,14.10
2018-04-25T00:26:21.634Z,14.10
2018-04-25T00:28:49.075Z,14.00
2018-04-25T00:31:16.526Z,14.00
2018-04-25T00:33:43.975Z,14.00
2018-04-25T00:36:11.422Z,13.90
2018-04-25T00:38:38.886Z,13.90
2018-04-25T00:41:06.326Z,13.60
2018-04-25T00:43:33.782Z,13.40
2018-04-25T00:46:01.230Z,13.30
2018-04-25T00:48:28.687Z,13.20
2018-04-25T00:50:56.126Z,13.30
2018-04-25T00:53:23.591Z,13.30
2018-04-25T00:55:51.026Z,13.30
2018-04-25T00:58:19.258Z,13.60
2018-04-25T01:00:47.630Z,13.60
2018-04-25T01:03:15.082Z,13.50
2018-04-25T01:05:42.546Z,13.50
2018-04-25T01:08:09.987Z,13.50
2018-04-25T01:10:37.507Z,13.40
2018-04-25T01:13:05.713Z,13.40
2018-04-25T01:15:33.410Z,13.30
2018-04-25T01:18:00.842Z,13.20
2018-04-25T01:20:28.285Z,13.10
2018-04-25T01:22:55.780Z,13.00
2018-04-25T01:25:23.205Z,12.90
2018-04-25T01:27:56.196Z,12.90
2018-04-25T01:30:24.414Z,12.90
2018-04-25T01:32:51.874Z,12.60
2018-04-25T01:35:19.313Z,12.60
2018-04-25T01:37:58.306Z,12.60
2018-04-25T01:40:25.763Z,12.80
2018-04-25T01:43:12.842Z,12.90
2018-04-25T01:45:43.002Z,12.90
2018-04-25T01:48:14.122Z,12.90
2018-04-25T01:50:41.965Z,12.90
2018-04-25T01:53:21.969Z,12.50
2018-04-25T01:56:01.358Z,12.40
2018-04-25T01:58:41.541Z,12.40
2018-04-25T02:01:19.775Z,12.40
2018-04-25T02:03:56.080Z,12.40
2018-04-25T02:06:23.530Z,12.40
2018-04-25T02:08:50.974Z,12.50
2018-04-25T02:11:18.426Z,12.50
2018-04-25T02:13:45.870Z,12.30
2018-04-25T02:16:13.345Z,12.20
2018-04-25T02:18:40.774Z,12.10
2018-04-25T02:21:08.235Z,11.90
2018-04-25T02:23:35.675Z,12.00
2018-04-25T02:26:03.110Z,12.00
2018-04-25T02:28:31.330Z,11.90
2018-04-25T02:30:58.778Z,11.80
2018-04-25T02:33:26.262Z,11.90
2018-04-25T02:35:53.701Z,11.80
2018-04-25T02:38:21.166Z,11.70
2018-04-25T02:40:48.967Z,11.70
2018-04-25T02:43:17.190Z,11.70
2018-04-25T02:45:44.637Z,11.70
2018-04-25T02:48:12.079Z,11.60
2018-04-25T02:50:39.534Z,11.70
2018-04-25T02:53:06.990Z,12.00
2018-04-25T02:55:34.446Z,11.60
2018-04-25T02:58:02.286Z,11.30
2018-04-25T03:00:29.739Z,11.10
2018-04-25T03:02:57.974Z,11.10
2018-04-25T03:05:25.418Z,11.10
2018-04-25T03:07:52.881Z,11.10
2018-04-25T03:10:20.327Z,11.30
2018-04-25T03:12:47.763Z,11.30
2018-04-25T03:15:15.988Z,11.70
2018-04-25T03:17:43.457Z,11.60
2018-04-25T03:20:10.889Z,11.90
2018-04-25T03:22:38.377Z,12.20
2018-04-25T03:25:05.805Z,12.10
2018-04-25T03:27:33.254Z,11.90
2018-04-25T03:30:00.678Z,11.90
2018-04-25T03:32:28.897Z,12.10
2018-04-25T03:34:56.345Z,12.00
2018-04-25T03:37:23.800Z,12.30
2018-04-25T03:39:51.252Z,12.50
2018-04-25T03:42:18.693Z,12.60
2018-04-25T03:44:46.150Z,12.70
2018-04-25T03:47:13.594Z,12.70
2018-04-25T03:49:41.486Z,12.80
2018-04-25T03:52:08.943Z,12.80
2018-04-25T03:54:36.434Z,12.90
2018-04-25T03:57:03.890Z,12.90
2018-04-25T03:59:31.370Z,12.90
2018-04-25T04:01:58.852Z,13.00
2018-04-25T04:04:27.065Z,13.00
2018-04-25T04:06:54.514Z,13.00
2018-04-25T04:09:21.962Z,13.00
2018-04-25T04:11:49.404Z,13.10
2018-04-25T04:14:16.855Z,13.20
2018-04-25T04:16:44.294Z,13.20
2018-04-25T04:19:12.513Z,13.20
2018-04-25T04:21:39.974Z,13.20
2018-04-25T04:24:07.419Z,13.30
2018-04-25T04:26:34.862Z,13.30
2018-04-25T04:29:02.313Z,13.20
2018-04-25T04:31:30.637Z,13.20
2018-04-25T04:33:58.090Z,13.30
2018-04-25T04:36:25.538Z,13.50
2018-04-25T04:38:53.961Z,13.50
2018-04-25T04:41:21.422Z,13.60
2018-04-25T04:43:48.874Z,13.60
2018-04-25T04:46:16.318Z,13.70
2018-04-25T04:48:43.761Z,13.70
2018-04-25T04:51:11.218Z,13.80
2018-04-25T04:53:38.658Z,13.90
2018-04-25T04:56:06.113Z,13.90
2018-04-25T04:58:33.553Z,13.90
2018-04-25T05:01:00.997Z,13.90
2018-04-25T05:03:28.446Z,13.90
2018-04-25T05:05:56.910Z,14.10
2018-04-25T05:08:25.258Z,14.00
2018-04-25T05:10:52.613Z,14.00
2018-04-25T05:13:20.070Z,14.00
2018-04-25T05:15:47.514Z,13.90
2018-04-25T05:18:14.982Z,14.00
2018-04-25T05:20:42.435Z,14.00
2018-04-25T05:23:09.875Z,14.10
2018-04-25T05:25:37.362Z,14.10
2018-04-25T05:28:04.802Z,14.20
2018-04-25T05:30:32.259Z,14.20
2018-04-25T05:32:59.706Z,14.30
2018-04-25T05:35:27.158Z,14.40
2018-04-25T05:37:54.610Z,14.40
2018-04-25T05:40:22.055Z,14.50
2018-04-25T05:42:49.502Z,14.40
2018-04-25T05:45:16.946Z,14.40
2018-04-25T05:47:45.166Z,14.50
2018-04-25T05:50:12.615Z,14.50
2018-04-25T05:52:40.082Z,14.50
2018-04-25T05:55:07.526Z,14.50
2018-04-25T05:57:34.985Z,14.50
2018-04-25T06:00:03.177Z,14.50
2018-04-25T06:02:30.637Z,14.50
2018-04-25T06:04:58.093Z,14.50
2018-04-25T06:07:25.538Z,14.50
2018-04-25T06:09:52.987Z,14.50
2018-04-25T06:12:20.514Z,14.40
2018-04-25T06:14:47.914Z,14.30
2018-04-25T06:17:15.355Z,14.40
2018-04-25T06:19:42.814Z,14.80
2018-04-25T06:22:10.275Z,14.90
2018-04-25T06:24:37.726Z,15.00
2018-04-25T06:27:05.181Z,15.50
2018-04-25T06:29:32.618Z,16.10
2018-04-25T06:32:00.829Z,16.60
2018-04-25T06:34:28.271Z,16.60
2018-04-25T06:36:56.009Z,16.70
2018-04-25T06:39:24.232Z,16.00
2018-04-25T06:41:51.657Z,15.90
2018-04-25T06:44:19.126Z,15.60
2018-04-25T06:46:46.583Z,15.40
2018-04-25T06:49:14.021Z,15.20
2018-04-25T06:51:41.935Z,15.20
2018-04-25T06:54:09.333Z,15.30
2018-04-25T06:56:36.773Z,15.40
2018-04-25T06:59:04.999Z,15.80
2018-04-25T07:01:32.450Z,15.80
2018-04-25T07:03:59.889Z,15.80
2018-04-25T07:06:27.338Z,15.90
2018-04-25T07:08:55.558Z,15.90
2018-04-25T07:11:23.000Z,15.80
2018-04-25T07:13:50.453Z,15.70
2018-04-25T07:16:17.905Z,15.80
2018-04-25T07:18:45.354Z,15.90
2018-04-25T07:21:12.876Z,16.10
2018-04-25T07:23:40.322Z,16.90
2018-04-25T07:26:07.761Z,17.20
2018-04-25T07:28:35.218Z,17.20
2018-04-25T07:31:02.661Z,17.40
2018-04-25T07:33:30.106Z,17.40
2018-04-25T07:35:57.558Z,17.70
2018-04-25T07:38:25.047Z,17.80
2018-04-25T07:40:52.498Z,17.90
2018-04-25T07:43:19.950Z,17.80
2018-04-25T07:45:47.416Z,17.20
2018-04-25T07:48:14.865Z,16.60
2018-04-25T07:50:42.310Z,16.40
2018-04-25T07:53:09.789Z,16.20
2018-04-25T07:55:37.230Z,16.10
2018-04-25T07:58:04.690Z,16.10
2018-04-25T08:00:32.133Z,16.50
2018-04-25T08:02:59.584Z,16.30
2018-04-25T08:05:27.625Z,16.20
2018-04-25T08:07:55.833Z,17.60
2018-04-25T08:10:23.322Z,17.60
2018-04-25T08:13:03.270Z,17.90
2018-04-25T08:15:42.701Z,18.40
2018-04-25T08:18:22.974Z,18.60
2018-04-25T08:21:07.185Z,18.90
2018-04-25T08:23:34.645Z,19.20
2018-04-25T08:26:03.154Z,19.10
2018-04-25T08:28:30.610Z,19.10
2018-04-25T08:30:58.064Z,19.70
2018-04-25T08:33:25.559Z,20.50
2018-04-25T08:35:52.965Z,20.70
2018-04-25T08:38:20.410Z,20.50
2018-04-25T08:40:48.814Z,20.80
2018-04-25T08:43:16.266Z,21.20
2018-04-25T08:45:43.720Z,21.30
2018-04-25T08:48:11.163Z,20.90
2018-04-25T08:50:38.611Z,20.80
2018-04-25T08:53:06.049Z,20.90
2018-04-25T08:55:34.257Z,20.10
2018-04-25T08:58:01.726Z,20.10
2018-04-25T09:00:29.198Z,20.40
2018-04-25T09:02:56.670Z,20.00
2018-04-25T09:05:24.106Z,20.20
2018-04-25T09:07:51.546Z,21.00
2018-04-25T09:10:19.006Z,21.20
2018-04-25T09:12:46.462Z,20.90
2018-04-25T09:15:14.146Z,20.70
2018-04-25T09:17:41.586Z,19.80
2018-04-25T09:20:09.033Z,19.50
2018-04-25T09:22:36.501Z,19.20
2018-04-25T09:25:04.553Z,18.80
2018-04-25T09:27:31.993Z,18.60
2018-04-25T09:29:59.429Z,18.40
2018-04-25T09:32:27.646Z,17.50
2018-04-25T09:34:55.443Z,17.40
2018-04-25T09:37:22.881Z,17.30
2018-04-25T09:39:50.346Z,17.40
2018-04-25T09:42:17.777Z,17.70
2018-04-25T09:44:45.224Z,17.80
2018-04-25T09:47:12.671Z,18.20
2018-04-25T09:49:40.109Z,18.10
2018-04-25T09:52:08.326Z,17.40
2018-04-25T09:54:35.801Z,17.40
2018-04-25T09:57:03.237Z,17.20
2018-04-25T09:59:30.689Z,16.90
2018-04-25T10:02:02.972Z,16.70
2018-04-25T10:04:30.875Z,16.60
2018-04-25T10:06:58.334Z,16.50
2018-04-25T10:09:25.783Z,16.30
2018-04-25T10:11:53.230Z,16.20
2018-04-25T10:14:21.618Z,16.10
2018-04-25T10:16:49.621Z,16.00
2018-04-25T10:19:17.842Z,16.20
2018-04-25T10:21:45.297Z,16.20
2018-04-25T10:24:12.775Z,16.40
2018-04-25T10:26:40.199Z,16.60
2018-04-25T10:29:07.643Z,17.00
2018-04-25T10:31:35.090Z,17.30
2018-04-25T10:34:02.530Z,17.50
2018-04-25T10:36:30.757Z,18.00
2018-04-25T10:38:58.247Z,17.90
2018-04-25T10:41:25.991Z,18.20
2018-04-25T10:43:53.434Z,18.10
2018-04-25T10:46:20.873Z,18.00
2018-04-25T10:48:48.330Z,17.90
2018-04-25T10:51:16.014Z,17.80
2018-04-25T10:53:43.474Z,17.60
2018-04-25T10:56:10.920Z,17.20
2018-04-25T10:58:38.361Z,17.00
2018-04-25T11:01:05.818Z,16.80
2018-04-25T11:03:33.254Z,16.70
2018-04-25T11:06:00.708Z,16.60
2018-04-25T11:08:28.923Z,16.30
2018-04-25T11:10:56.386Z,16.30
2018-04-25T11:13:23.837Z,16.10
2018-04-25T11:15:51.286Z,16.00
2018-04-25T11:18:18.730Z,15.80
2018-04-25T11:20:46.173Z,15.50
2018-04-25T11:23:13.630Z,15.20
2018-04-25T11:25:41.065Z,14.90
2018-04-25T11:28:09.841Z,13.80
2018-04-25T11:30:37.277Z,13.70
2018-04-25T11:33:04.721Z,13.30
2018-04-25T11:35:32.178Z,13.10
2018-04-25T11:37:59.631Z,12.90
2018-04-25T11:40:27.102Z,12.80
2018-04-25T11:42:54.538Z,12.70
2018-04-25T11:45:21.985Z,12.70
2018-04-25T11:47:49.446Z,12.70
2018-04-25T11:50:16.890Z,12.80
2018-04-25T11:52:44.360Z,12.70
2018-04-25T11:55:11.797Z,12.70
2018-04-25T11:57:39.238Z,12.80
2018-04-25T12:00:07.462Z,13.30
2018-04-25T12:02:34.926Z,13.30
2018-04-25T12:05:02.387Z,13.30
2018-04-25T12:07:29.830Z,13.30
2018-04-25T12:09:57.294Z,13.20
2018-04-25T12:12:24.729Z,13.20
2018-04-25T12:14:52.198Z,13.40
2018-04-25T12:17:20.161Z,13.60
2018-04-25T12:19:47.612Z,13.70
2018-04-25T12:22:15.075Z,13.90
2018-04-25T12:24:42.503Z,14.00
2018-04-25T12:27:10.749Z,13.90
2018-04-25T12:29:38.185Z,13.90
2018-04-25T12:32:05.630Z,14.10
2018-04-25T12:34:33.081Z,14.10
2018-04-25T12:37:00.542Z,14.30
2018-04-25T12:39:27.985Z,14.70
2018-04-25T12:41:55.467Z,15.20
2018-04-25T12:44:22.938Z,15.40
2018-04-25T12:46:50.380Z,15.70
2018-04-25T12:49:17.825Z,15.80
2018-04-25T12:51:46.118Z,16.00
2018-04-25T12:54:13.561Z,16.20
2018-04-25T12:56:41.007Z,16.20
2018-04-25T12:59:08.474Z,16.80
2018-04-25T13:01:35.920Z,17.00
2018-04-25T13:04:03.374Z,16.90
2018-04-25T13:06:30.838Z,17.30
2018-04-25T13:08:58.370Z,17.90
2018-04-25T13:11:25.744Z,18.50
2018-04-25T13:13:53.270Z,18.70
2018-04-25T13:16:21.702Z,19.00
2018-04-25T13:18:49.153Z,19.00
2018-04-25T13:21:16.614Z,19.10
2018-04-25T13:23:44.062Z,18.70
2018-04-25T13:26:11.509Z,18.80
2018-04-25T13:28:38.949Z,18.60
2018-04-25T13:31:06.412Z,18.20
2018-04-25T13:33:33.850Z,18.30
2018-04-25T13:36:02.631Z,19.10
2018-04-25T13:38:30.074Z,19.10
2018-04-25T13:40:57.518Z,19.40
2018-04-25T13:43:26.500Z,18.90
2018-04-25T13:45:53.953Z,18.90
2018-04-25T13:48:21.408Z,19.20
2018-04-25T13:50:48.845Z,19.60
2018-04-25T13:53:16.306Z,20.20
2018-04-25T13:55:43.796Z,20.80
2018-04-25T13:58:11.287Z,21.90
2018-04-25T14:00:39.506Z,21.70
2018-04-25T14:03:06.949Z,21.70
2018-04-25T14:05:34.393Z,21.10
2018-04-25T14:08:03.349Z,20.40
2018-04-25T14:10:30.794Z,19.10
2018-04-25T14:12:58.299Z,16.20
2018-04-25T14:15:25.698Z,14.50
2018-04-25T14:17:53.146Z,13.80
2018-04-25T14:20:20.602Z,13.70
2018-04-25T14:22:48.721Z,14.30
2018-04-25T14:25:16.966Z,15.80
2018-04-25T14:27:44.426Z,15.80
2018-04-25T14:30:11.925Z,16.20
2018-04-25T14:32:39.314Z,16.70
2018-04-25T14:35:06.774Z,17.00
2018-04-25T14:37:34.216Z,17.70
2018-04-25T14:40:01.671Z,17.90
2018-04-25T14:42:29.113Z,18.00
2018-04-25T14:44:56.558Z,18.30
2018-04-25T14:47:24.774Z,18.20
2018-04-25T14:49:52.218Z,18.20
2018-04-25T14:52:19.709Z,18.40
2018-04-25T14:54:47.146Z,18.20
2018-04-25T14:57:14.586Z,18.10
2018-04-25T14:59:42.034Z,17.40
2018-04-25T15:02:09.479Z,16.70
2018-04-25T15:04:37.687Z,16.00
2018-04-25T15:07:05.145Z,16.00
2018-04-25T15:09:32.597Z,15.90
2018-04-25T15:12:00.048Z,16.10
2018-04-25T15:14:27.502Z,16.30
2018-04-25T15:16:54.954Z,17.10
2018-04-25T15:19:22.394Z,17.60
2018-04-25T15:21:49.849Z,18.10
2018-04-25T15:24:18.069Z,19.40
2018-04-25T15:26:45.506Z,19.40
2018-04-25T15:29:12.951Z,19.20
2018-04-25T15:31:40.393Z,18.60
2018-04-25T15:34:08.085Z,18.50
2018-04-25T15:36:35.534Z,19.30
2018-04-25T15:39:02.991Z,19.20
2018-04-25T15:41:30.449Z,18.70
2018-04-25T15:43:57.901Z,17.80
2018-04-25T15:46:25.390Z,17.30
2018-04-25T15:48:52.855Z,16.80
2018-04-25T15:51:20.301Z,16.80
2018-04-25T15:53:47.746Z,16.70
2018-04-25T15:56:15.202Z,16.70
2018-04-25T15:58:42.886Z,16.70
2018-04-25T16:01:10.352Z,17.20
2018-04-25T16:03:37.798Z,17.90
2018-04-25T16:06:05.226Z,18.50
2018-04-25T16:08:32.684Z,19.30
2018-04-25T16:11:00.210Z,19.20
2018-04-25T16:13:27.598Z,19.00
2018-04-25T16:15:55.043Z,18.30
2018-04-25T16:18:22.486Z,17.50
2018-04-25T16:20:50.706Z,17.10
2018-04-25T16:23:18.551Z,17.00
2018-04-25T16:25:46.021Z,16.80
2018-04-25T16:28:13.478Z,16.60
2018-04-25T16:30:41.020Z,16.60
2018-04-25T16:33:08.390Z,16.40
2018-04-25T16:35:35.834Z,16.30
2018-04-25T16:38:03.793Z,16.20
2018-04-25T16:40:31.229Z,16.10
2018-04-25T16:42:59.437Z,15.90
2018-04-25T16:45:26.895Z,15.90
2018-04-25T16:47:54.334Z,15.70
2018-04-25T16:50:21.794Z,15.60
2018-04-25T16:52:49.234Z,15.40
2018-04-25T16:55:17.450Z,15.20
2018-04-25T16:57:44.897Z,15.20
2018-04-25T17:00:12.339Z,15.20
2018-04-25T17:02:39.794Z,15.20
2018-04-25T17:05:07.247Z,15.30
2018-04-25T17:07:35.254Z,15.20
2018-04-25T17:10:02.710Z,15.20
2018-04-25T17:12:30.166Z,15.20
2018-04-25T17:14:57.685Z,15.00
2018-04-25T17:17:25.063Z,14.80
2018-04-25T17:19:52.518Z,14.80
2018-04-25T17:22:19.975Z,14.80
2018-04-25T17:24:47.410Z,14.60
2018-04-25T17:27:14.865Z,14.50
2018-04-25T17:29:43.082Z,14.30
2018-04-25T17:32:10.522Z,14.30
2018-04-25T17:34:37.993Z,14.30
2018-04-25T17:37:05.450Z,14.30
2018-04-25T17:39:32.970Z,14.20
2018-04-25T17:42:00.432Z,14.10
2018-04-25T17:44:29.034Z,14.00
2018-04-25T17:46:56.502Z,14.00
2018-04-25T17:49:23.956Z,13.90
2018-04-25T17:51:51.410Z,13.80
2018-04-25T17:54:18.869Z,13.70
2018-04-25T17:56:46.306Z,13.60
2018-04-25T17:59:13.745Z,13.70
2018-04-25T18:01:41.965Z,13.60
2018-04-25T18:04:09.434Z,13.60
2018-04-25T18:06:37.198Z,13.70
2018-04-25T18:09:04.661Z,13.60
2018-04-25T18:11:32.583Z,13.60
2018-04-25T18:14:00.026Z,13.60
2018-04-25T18:16:28.242Z,13.60
2018-04-25T18:18:55.787Z,13.60
2018-04-25T18:21:23.283Z,13.60
2018-04-25T18:23:50.727Z,13.60
2018-04-25T18:26:18.177Z,13.60
2018-04-25T18:28:45.625Z,13.60
2018-04-25T18:31:13.202Z,13.40
2018-04-25T18:33:40.906Z,13.40
2018-04-25T18:36:09.118Z,13.20
2018-04-25T18:38:36.571Z,13.10
2018-04-25T18:41:04.026Z,13.10
2018-04-25T18:43:31.486Z,13.00
2018-04-25T18:45:58.925Z,12.90
2018-04-25T18:48:26.377Z,12.80
2018-04-25T18:50:53.814Z,12.70
2018-04-25T18:53:22.033Z,12.50
2018-04-25T18:55:49.486Z,12.50
2018-04-25T18:58:16.942Z,12.40
2018-04-25T19:00:45.249Z,12.30
2018-04-25T19:03:12.762Z,12.30
2018-04-25T19:05:40.505Z,12.30
2018-04-25T19:08:08.046Z,12.20
2018-04-25T19:10:35.495Z,12.20
2018-04-25T19:13:02.983Z,12.10
2018-04-25T19:15:31.215Z,11.90
2018-04-25T19:17:59.054Z,11.90
2018-04-25T19:20:27.162Z,11.80
2018-04-25T19:22:54.605Z,11.50
2018-04-25T19:25:22.073Z,11.40
2018-04-25T19:27:49.517Z,11.30
2018-04-25T19:30:16.970Z,11.40
2018-04-25T19:32:44.820Z,11.30
2018-04-25T19:35:12.294Z,11.20
2018-04-25T19:37:40.451Z,11.00
2018-04-25T19:40:07.933Z,11.00
2018-04-25T19:42:35.394Z,11.00
2018-04-25T19:45:03.472Z,10.90
2018-04-25T19:47:31.050Z,10.80
2018-04-25T19:49:58.493Z,10.70
2018-04-25T19:52:26.021Z,10.60
2018-04-25T19:54:53.468Z,10.50
2018-04-25T19:57:20.938Z,10.60
2018-04-25T19:59:48.400Z,10.60
2018-04-25T20:02:15.853Z,10.70
2018-04-25T20:04:43.301Z,10.80
2018-04-25T20:07:10.754Z,10.80
2018-04-25T20:09:38.216Z,10.80
2018-04-25T20:12:06.897Z,10.80
2018-04-25T20:14:34.763Z,10.80
2018-04-25T20:17:02.596Z,10.80
2018-04-25T20:19:30.816Z,10.80
2018-04-25T20:21:58.259Z,10.80
2018-04-25T20:24:25.790Z,10.80
2018-04-25T20:26:54.011Z,10.80
2018-04-25T20:29:21.449Z,10.80
2018-04-25T20:31:48.921Z,10.90
2018-04-25T20:34:16.364Z,11.00
2018-04-25T20:36:43.805Z,11.00
2018-04-25T20:39:11.286Z,11.10
2018-04-25T20:41:38.710Z,11.20
2018-04-25T20:44:06.165Z,11.20
2018-04-25T20:46:34.374Z,11.30
2018-04-25T20:49:01.826Z,11.30
2018-04-25T20:51:29.261Z,11.30
2018-04-25T20:53:56.716Z,11.30
2018-04-25T20:56:24.922Z,11.50
2018-04-25T20:58:52.676Z,11.50
2018-04-25T21:01:20.146Z,11.50
2018-04-25T21:03:47.897Z,11.40
2018-04-25T21:06:15.383Z,11.20
2018-04-25T21:08:42.827Z,11.20
2018-04-25T21:11:10.313Z,11.10
2018-04-25T21:13:38.441Z,11.00
2018-04-25T21:16:05.918Z,11.00
2018-04-25T21:18:33.358Z,10.90
2018-04-25T21:21:00.912Z,10.90
2018-04-25T21:23:28.365Z,10.90
2018-04-25T21:25:55.827Z,10.90
2018-04-25T21:28:23.285Z,10.80
2018-04-25T21:30:50.736Z,10.70
2018-04-25T21:33:18.185Z,10.70
2018-04-25T21:35:45.626Z,10.70
2018-04-25T21:38:13.841Z,10.60
2018-04-25T21:40:41.287Z,10.60
2018-04-25T21:43:09.650Z,10.60
2018-04-25T21:45:37.091Z,10.70
2018-04-25T21:48:05.638Z,10.70
2018-04-25T21:50:33.077Z,10.70
2018-04-25T21:53:00.523Z,10.70
2018-04-25T21:55:28.395Z,10.60
2018-04-25T21:57:55.839Z,10.60
2018-04-25T22:00:23.282Z,10.60
2018-04-25T22:02:50.735Z,10.60
2018-04-25T22:05:18.182Z,10.50
2018-04-25T22:07:46.399Z,10.60
2018-04-25T22:10:13.866Z,10.50
2018-04-25T22:12:41.323Z,10.60
2018-04-25T22:15:08.762Z,10.60
2018-04-25T22:17:36.214Z,10.60
2018-04-25T22:20:03.665Z,10.60
2018-04-25T22:22:31.118Z,10.60
2018-04-25T22:24:58.562Z,10.60
2018-04-25T22:27:26.006Z,10.60
2018-04-25T22:29:54.214Z,10.60
2018-04-25T22:32:21.666Z,10.60
2018-04-25T22:34:49.106Z,10.60
2018-04-25T22:37:17.030Z,10.60
2018-04-25T22:39:44.478Z,10.50
2018-04-25T22:42:11.956Z,10.50
2018-04-25T22:44:39.390Z,10.50
2018-04-25T22:47:07.194Z,10.50
2018-04-25T22:49:35.419Z,10.40
2018-04-25T22:52:02.866Z,10.40
2018-04-25T22:54:30.309Z,10.30
2018-04-25T22:56:57.758Z,10.30
2018-04-25T22:59:25.962Z,10.20
2018-04-25T23:01:53.438Z,10.20
2018-04-25T23:04:21.201Z,10.10
2018-04-25T23:06:48.654Z,10.10
2018-04-25T23:09:16.098Z,10.00
2018-04-25T23:11:43.545Z,10.00
2018-04-25T23:14:10.982Z,9.90
2018-04-25T23:16:38.430Z,9.80
2018-04-25T23:19:06.632Z,9.80
2018-04-25T23:21:34.065Z,9.80
2018-04-25T23:24:01.511Z,9.80
2018-04-25T23:26:29.718Z,9.70
2018-04-25T23:28:57.175Z,9.70
2018-04-25T23:31:24.622Z,9.70
2018-04-25T23:33:52.615Z,9.60
2018-04-25T23:36:20.062Z,9.60
2018-04-25T23:38:47.502Z,9.50
2018-04-25T23:41:14.954Z,9.50
2018-04-25T23:43:42.398Z,9.40
2018-04-25T23:46:10.614Z,9.20
2018-04-25T23:48:38.049Z,9.20
2018-04-25T23:51:05.490Z,9.10
2018-04-25T23:53:33.695Z,9.00
2018-04-25T23:56:01.146Z,9.00
2018-04-25T23:58:29.183Z,9.00
